Time;durP1;ratioP1;P1;durP2;ratioP2;P2;SDS_P1;SDS_P2;PMS_P1;PMS_P2;Temp;Humidity;BMP_temperature;BMP_pressure;BME280_temperature;BME280_humidity;BME280_pressure;Samples;Min_cycle;Max_cycle;Signal;HPM_P1;HPM_P2
2022/09/20 00:00:41;;;;;;;1.25;0.65;;;;;;;8.18;100.00;101856.19;5048713;28;20090;-48
2022/09/20 00:03:07;;;;;;;1.05;0.30;;;;;;;8.16;100.00;101853.69;5039880;28;20565;-48
2022/09/20 00:05:37;;;;;;;0.85;0.40;;;;;;;8.12;100.00;101847.00;5036040;28;20063;-48
2022/09/20 00:08:04;;;;;;;0.68;0.38;;;;;;;8.06;100.00;101845.78;5044221;28;20480;-50
2022/09/20 00:10:38;;;;;;;1.52;0.70;;;;;;;8.01;100.00;101849.81;5034310;28;20025;-48
2022/09/20 00:13:05;;;;;;;0.55;0.55;;;;;;;7.96;100.00;101846.78;5044172;28;20075;-48
2022/09/20 00:15:31;;;;;;;0.50;0.50;;;;;;;7.90;100.00;101847.31;5028412;28;20086;-49
2022/09/20 00:17:57;;;;;;;0.80;0.32;;;;;;;7.80;100.00;101845.53;5039020;28;20022;-49
2022/09/20 00:20:23;;;;;;;0.90;0.50;;;;;;;7.72;100.00;101850.66;5038211;28;20035;-48
2022/09/20 00:22:48;;;;;;;0.75;0.50;;;;;;;7.67;100.00;101849.38;5035766;28;20021;-48
2022/09/20 00:25:15;;;;;;;1.52;0.65;;;;;;;7.63;100.00;101846.22;5044250;28;20039;-48
2022/09/20 00:27:41;;;;;;;1.42;0.65;;;;;;;7.57;100.00;101842.31;5038321;28;20033;-50
2022/09/20 00:30:07;;;;;;;1.90;0.75;;;;;;;7.52;100.00;101856.91;5034251;28;20806;-49
2022/09/20 00:32:33;;;;;;;0.45;0.45;;;;;;;7.42;100.00;101854.25;5041558;28;20037;-48
2022/09/20 00:35:08;;;;;;;1.17;0.35;;;;;;;7.34;100.00;101859.38;5036226;28;20025;-49
2022/09/20 00:37:34;;;;;;;1.15;1.10;;;;;;;7.26;100.00;101848.69;5041327;28;20064;-48
2022/09/20 00:40:00;;;;;;;1.55;0.80;;;;;;;7.14;100.00;101853.22;5039564;28;20225;-48
2022/09/20 00:42:27;;;;;;;1.13;0.88;;;;;;;7.07;100.00;101852.91;5032360;28;20501;-48
2022/09/20 00:44:57;;;;;;;0.40;0.40;;;;;;;7.01;100.00;101857.91;5041122;28;20068;-48
2022/09/20 00:47:43;;;;;;;0.73;0.70;;;;;;;6.97;100.00;101854.72;5038491;28;20029;-51
2022/09/20 00:50:23;;;;;;;1.20;0.47;;;;;;;6.95;100.00;101859.28;5032098;28;20117;-48
2022/09/20 00:52:53;;;;;;;0.70;0.38;;;;;;;6.88;100.00;101866.88;5044417;28;20378;-50
2022/09/20 00:55:19;;;;;;;1.63;0.43;;;;;;;6.85;100.00;101864.50;5037838;28;20035;-49
2022/09/20 00:57:45;;;;;;;1.95;0.82;;;;;;;6.83;100.00;101873.50;5037266;28;20029;-47
2022/09/20 01:00:12;;;;;;;1.45;0.52;;;;;;;6.78;100.00;101866.00;5042689;28;20462;-48
2022/09/20 01:02:41;;;;;;;1.40;0.38;;;;;;;6.72;100.00;101869.16;5045548;28;20048;-48
2022/09/20 01:05:09;;;;;;;0.60;0.60;;;;;;;6.70;100.00;101869.28;5052563;28;20104;-49
2022/09/20 01:07:35;;;;;;;1.20;0.60;;;;;;;6.64;100.00;101874.28;5034828;28;20106;-47
2022/09/20 01:10:00;;;;;;;1.52;1.38;;;;;;;6.59;100.00;101876.47;5040483;28;20482;-53
2022/09/20 01:12:30;;;;;;;0.20;0.13;;;;;;;6.51;100.00;101869.22;5051956;28;20563;-49
2022/09/20 01:14:59;;;;;;;1.48;0.90;;;;;;;6.43;100.00;101876.91;5039316;28;20064;-52
2022/09/20 01:17:28;;;;;;;0.68;0.68;;;;;;;6.41;100.00;101878.84;5041848;28;20042;-51
2022/09/20 01:20:21;;;;;;;0.55;0.55;;;;;;;6.40;100.00;101882.44;5048451;28;20116;-48
2022/09/20 01:23:03;;;;;;;2.30;1.00;;;;;;;6.35;100.00;101885.47;5043550;28;20033;-49
2022/09/20 01:25:51;;;;;;;2.08;1.30;;;;;;;6.27;100.00;101883.50;5044329;28;20021;-50
2022/09/20 01:28:17;;;;;;;1.17;0.90;;;;;;;6.18;100.00;101873.72;5039383;28;20032;-48
2022/09/20 01:30:45;;;;;;;2.38;1.08;;;;;;;6.13;100.00;101880.34;5045166;28;20033;-50
2022/09/20 01:33:21;;;;;;;2.53;1.52;;;;;;;6.09;100.00;101874.47;5054435;28;20032;-51
2022/09/20 01:35:50;;;;;;;1.25;0.77;;;;;;;6.04;100.00;101881.91;5032491;28;20421;-47
2022/09/20 01:38:32;;;;;;;1.05;0.90;;;;;;;5.98;100.00;101887.69;5041662;28;20068;-49
2022/09/20 01:41:11;;;;;;;1.42;1.33;;;;;;;5.88;100.00;101888.41;5056398;28;20035;-48
2022/09/20 01:43:53;;;;;;;1.13;0.88;;;;;;;5.83;100.00;101887.13;5035223;28;20037;-50
2022/09/20 01:46:30;;;;;;;1.08;0.70;;;;;;;5.79;100.00;101889.19;5038449;28;20033;-48
2022/09/20 01:49:20;;;;;;;3.00;1.08;;;;;;;5.74;100.00;101890.53;5044981;28;20025;-48
2022/09/20 01:52:16;;;;;;;2.60;1.00;;;;;;;5.66;100.00;101886.72;5051745;28;20045;-52
2022/09/20 01:55:10;;;;;;;1.63;1.38;;;;;;;5.59;100.00;101893.41;5037546;28;20025;-48
2022/09/20 01:57:57;;;;;;;1.27;1.17;;;;;;;5.55;100.00;101889.38;5034811;28;20033;-49
2022/09/20 02:00:29;;;;;;;1.85;0.90;;;;;;;5.54;100.00;101886.84;5039508;28;20111;-47
2022/09/20 02:03:30;;;;;;;2.50;1.25;;;;;;;5.53;100.00;101895.72;5033311;28;20036;-48
2022/09/20 02:06:17;;;;;;;3.22;1.90;;;;;;;5.49;100.00;101891.66;5034487;28;20197;-52
2022/09/20 02:09:03;;;;;;;3.53;1.30;;;;;;;5.45;100.00;101886.66;5046541;28;20501;-49
2022/09/20 02:12:05;;;;;;;2.55;1.50;;;;;;;5.42;100.00;101888.66;5035053;28;20036;-48
2022/09/20 02:14:33;;;;;;;3.00;1.00;;;;;;;5.36;100.00;101889.16;5041683;28;20147;-47
2022/09/20 02:17:17;;;;;;;3.17;1.80;;;;;;;5.32;100.00;101885.97;5051168;28;20029;-52
2022/09/20 02:20:14;;;;;;;2.90;1.65;;;;;;;5.31;100.00;101879.00;5045966;28;20490;-48
2022/09/20 02:22:51;;;;;;;1.60;1.38;;;;;;;5.27;100.00;101880.22;5033996;28;20144;-47
2022/09/20 02:25:44;;;;;;;2.22;1.27;;;;;;;5.22;100.00;101875.34;5049634;28;20036;-50
2022/09/20 02:28:18;;;;;;;1.10;1.00;;;;;;;5.18;100.00;101865.16;5041918;28;20474;-49
2022/09/20 02:30:47;;;;;;;1.70;1.02;;;;;;;5.12;100.00;101873.56;5045994;28;20122;-53
2022/09/20 02:33:31;;;;;;;4.22;1.65;;;;;;;5.07;100.00;101873.09;5055331;28;20452;-49
2022/09/20 02:36:06;;;;;;;2.80;1.75;;;;;;;5.05;100.00;101877.63;5046755;28;20079;-48
2022/09/20 02:38:56;;;;;;;2.13;1.23;;;;;;;4.98;100.00;101875.50;5044232;28;20087;-48
2022/09/20 02:41:37;;;;;;;1.98;0.88;;;;;;;4.95;100.00;101878.34;5053212;28;20037;-49
2022/09/20 02:44:14;;;;;;;3.35;1.42;;;;;;;4.91;100.00;101878.72;5046428;28;20025;-48
2022/09/20 02:47:17;;;;;;;5.70;1.25;;;;;;;4.88;100.00;101887.69;5044827;28;20028;-50
2022/09/20 02:50:01;;;;;;;2.60;1.75;;;;;;;4.86;100.00;101886.94;5040640;28;20699;-53
2022/09/20 02:52:55;;;;;;;3.17;1.98;;;;;;;4.84;100.00;101880.97;5044228;28;20038;-48
2022/09/20 02:55:39;;;;;;;2.58;1.50;;;;;;;4.79;100.00;101889.19;5035181;28;20030;-48
2022/09/20 02:58:07;;;;;;;2.38;1.25;;;;;;;4.76;100.00;101878.09;5046925;28;20032;-48
2022/09/20 03:00:52;;;;;;;1.90;1.48;;;;;;;4.72;100.00;101879.28;5046152;28;20041;-51
2022/09/20 03:03:18;;;;;;;2.15;1.52;;;;;;;4.67;100.00;101879.63;5044681;28;20100;-48
2022/09/20 03:06:02;;;;;;;2.33;1.73;;;;;;;4.67;100.00;101882.25;5037830;28;20119;-50
2022/09/20 03:08:53;;;;;;;2.60;1.70;;;;;;;4.75;100.00;101876.41;5050535;28;20108;-48
2022/09/20 03:11:49;;;;;;;1.85;1.50;;;;;;;4.81;100.00;101881.22;5029111;28;20051;-48
2022/09/20 03:14:23;;;;;;;5.93;1.23;;;;;;;4.89;100.00;101886.72;5042744;28;20075;-48
2022/09/20 03:16:58;;;;;;;5.45;1.60;;;;;;;4.99;100.00;101874.50;5037851;28;20504;-48
2022/09/20 03:20:02;;;;;;;3.38;1.75;;;;;;;5.12;100.00;101876.19;5040199;28;20287;-49
2022/09/20 03:22:57;;;;;;;5.20;1.92;;;;;;;5.18;100.00;101878.31;5031202;28;20065;-51
2022/09/20 03:25:58;;;;;;;4.78;3.25;;;;;;;5.13;100.00;101877.84;5044394;28;20048;-48
2022/09/20 03:28:42;;;;;;;6.90;3.08;;;;;;;5.12;100.00;101876.19;5005572;28;20450;-50
2022/09/20 03:31:35;;;;;;;8.80;2.40;;;;;;;5.11;100.00;101878.00;5040907;28;20041;-49
2022/09/20 03:34:21;;;;;;;8.38;3.80;;;;;;;5.20;100.00;101876.41;5042544;28;20111;-48
2022/09/20 03:37:11;;;;;;;4.95;2.85;;;;;;;5.27;100.00;101879.38;5038733;28;20052;-48
2022/09/20 03:39:58;;;;;;;5.50;2.65;;;;;;;5.33;100.00;101873.63;5040230;28;20477;-47
2022/09/20 03:42:27;;;;;;;6.68;3.15;;;;;;;5.33;100.00;101871.84;5037757;28;20024;-47
2022/09/20 03:45:26;;;;;;;7.95;4.30;;;;;;;5.34;100.00;101870.03;5045034;28;20441;-48
2022/09/20 03:47:54;;;;;;;5.70;2.75;;;;;;;5.38;100.00;101869.69;5044027;28;20116;-48
2022/09/20 03:50:22;;;;;;;12.38;5.07;;;;;;;5.44;100.00;101869.19;5045716;28;20560;-48
2022/09/20 03:53:29;;;;;;;7.43;4.07;;;;;;;5.52;100.00;101873.81;5034422;28;20402;-48
2022/09/20 03:56:15;;;;;;;9.88;3.60;;;;;;;5.57;100.00;101869.03;5039395;28;20044;-50
2022/09/20 03:58:55;;;;;;;5.95;3.30;;;;;;;5.61;100.00;101880.16;5041141;28;20432;-55
2022/09/20 04:01:39;;;;;;;6.78;4.10;;;;;;;5.65;100.00;101881.56;5044578;28;20064;-55
2022/09/20 04:04:35;;;;;;;7.13;4.03;;;;;;;5.69;100.00;101877.72;5050827;28;20537;-49
2022/09/20 04:07:42;;;;;;;7.47;3.50;;;;;;;5.69;100.00;101875.94;5044342;28;20045;-49
2022/09/20 04:10:24;;;;;;;6.88;4.22;;;;;;;5.60;100.00;101874.06;5033122;28;20044;-49
2022/09/20 04:13:34;;;;;;;13.50;3.95;;;;;;;5.57;100.00;101870.81;5042006;28;20542;-48
2022/09/20 04:16:22;;;;;;;7.28;3.70;;;;;;;5.57;100.00;101871.66;5027136;28;20506;-54
2022/09/20 04:19:00;;;;;;;9.52;4.50;;;;;;;5.56;100.00;101866.53;5030287;28;20047;-51
2022/09/20 04:21:44;;;;;;;6.78;4.38;;;;;;;5.55;100.00;101864.84;5038845;28;20028;-50
2022/09/20 04:24:36;;;;;;;5.65;4.10;;;;;;;5.55;100.00;101870.09;5041323;28;20036;-49
2022/09/20 04:27:11;;;;;;;8.52;4.97;;;;;;;5.54;100.00;101871.91;5041202;28;20287;-50
2022/09/20 04:29:44;;;;;;;6.28;3.97;;;;;;;5.53;100.00;101872.06;5041342;28;20072;-48
2022/09/20 04:32:12;;;;;;;11.77;4.40;;;;;;;5.54;100.00;101864.00;5044038;28;20056;-50
2022/09/20 04:37:35;;;;;;;13.05;4.38;;;;;;;5.56;100.00;101866.53;5045478;28;20044;-49
2022/09/20 04:40:16;;;;;;;13.30;3.22;;;;;;;5.55;100.00;101857.81;5047281;28;20454;-49
2022/09/20 04:43:08;;;;;;;9.65;4.25;;;;;;;5.51;100.00;101855.53;5035000;28;20115;-48
2022/09/20 04:45:36;;;;;;;6.15;3.42;;;;;;;5.43;100.00;101859.63;5041385;28;20116;-50
2022/09/20 04:48:11;;;;;;;8.05;3.95;;;;;;;5.44;100.00;101871.81;5042670;28;20025;-52
2022/09/20 04:50:45;;;;;;;9.82;4.43;;;;;;;5.47;100.00;101863.69;5038053;28;20033;-48
2022/09/20 04:53:49;;;;;;;9.95;5.28;;;;;;;5.50;100.00;101867.00;5053433;28;20033;-49
2022/09/20 04:56:20;;;;;;;11.00;4.97;;;;;;;5.52;100.00;101865.94;5041765;28;20425;-48
2022/09/20 04:59:05;;;;;;;7.50;4.13;;;;;;;5.54;100.00;101864.00;5034023;28;20510;-50
2022/09/20 05:01:58;;;;;;;21.48;5.95;;;;;;;5.46;100.00;101869.88;5044608;28;20037;-50
2022/09/20 05:04:37;;;;;;;6.93;4.07;;;;;;;5.35;100.00;101869.94;5049494;28;20609;-48
2022/09/20 05:07:18;;;;;;;9.65;3.90;;;;;;;5.28;100.00;101865.28;5039568;28;20585;-48
2022/09/20 05:10:20;;;;;;;11.25;4.03;;;;;;;5.13;100.00;101865.53;5040400;28;20060;-55
2022/09/20 05:13:14;;;;;;;5.47;3.78;;;;;;;5.05;100.00;101864.47;5042292;28;20029;-49
2022/09/20 05:16:10;;;;;;;12.32;3.47;;;;;;;5.01;100.00;101863.91;5027107;28;20514;-49
2022/09/20 05:18:53;;;;;;;9.13;3.83;;;;;;;4.99;100.00;101869.25;5041461;28;20029;-51
2022/09/20 05:21:45;;;;;;;8.05;3.40;;;;;;;4.97;100.00;101865.91;5036960;28;20490;-48
2022/09/20 05:24:19;;;;;;;5.28;2.90;;;;;;;4.95;100.00;101866.97;5032956;28;20082;-49
2022/09/20 05:27:18;;;;;;;10.07;4.90;;;;;;;4.96;100.00;101872.13;5036348;28;20039;-48
2022/09/20 05:30:02;;;;;;;7.55;3.17;;;;;;;4.93;100.00;101877.63;5040600;28;20233;-52
2022/09/20 05:32:57;;;;;;;7.28;4.53;;;;;;;4.99;100.00;101876.31;5043001;28;20105;-49
2022/09/20 05:35:29;;;;;;;21.27;5.45;;;;;;;4.97;100.00;101865.06;5026380;28;20048;-48
2022/09/20 05:38:10;;;;;;;8.25;4.07;;;;;;;4.91;100.00;101876.91;5032001;28;20037;-49
2022/09/20 05:41:04;;;;;;;7.77;4.37;;;;;;;4.81;100.00;101883.84;5043991;28;20061;-49
2022/09/20 05:43:50;;;;;;;7.65;3.88;;;;;;;4.73;100.00;101879.19;5034949;28;20036;-48
2022/09/20 05:46:54;;;;;;;7.70;4.20;;;;;;;4.67;100.00;101884.88;5044877;28;20032;-49
2022/09/20 05:49:40;;;;;;;10.82;3.60;;;;;;;4.67;100.00;101887.50;5040581;28;20114;-51
2022/09/20 05:52:30;;;;;;;10.88;4.32;;;;;;;4.71;100.00;101893.38;5043065;28;20025;-49
2022/09/20 05:55:14;;;;;;;5.15;3.80;;;;;;;4.77;100.00;101892.91;5040759;28;20037;-50
2022/09/20 05:57:53;;;;;;;10.65;4.50;;;;;;;4.81;100.00;101886.47;5040668;28;20036;-49
2022/09/20 06:00:26;;;;;;;7.65;4.22;;;;;;;4.84;100.00;101890.66;5043544;28;20108;-53
2022/09/20 06:03:01;;;;;;;12.23;3.55;;;;;;;4.88;100.00;101897.31;5034712;28;20124;-49
2022/09/20 06:05:52;;;;;;;11.23;4.10;;;;;;;4.91;100.00;101897.13;5038784;28;20422;-48
2022/09/20 06:08:31;;;;;;;8.80;3.33;;;;;;;4.92;100.00;101898.78;5044146;28;20028;-49
2022/09/20 06:11:20;;;;;;;19.95;5.13;;;;;;;4.89;100.00;101909.53;5037525;28;20301;-49
2022/09/20 06:14:20;;;;;;;6.13;2.67;;;;;;;4.87;100.00;101901.75;5039387;28;20458;-49
2022/09/20 06:17:21;;;;;;;5.47;2.38;;;;;;;4.84;100.00;101904.63;5041541;28;20041;-48
2022/09/20 06:20:08;;;;;;;9.57;3.00;;;;;;;4.86;100.00;101907.97;5042611;28;20132;-50
2022/09/20 06:22:42;;;;;;;4.97;2.88;;;;;;;4.86;100.00;101913.22;5037031;28;20068;-49
2022/09/20 06:25:07;;;;;;;6.72;3.65;;;;;;;4.85;100.00;101908.09;5044839;28;20433;-50
2022/09/20 06:27:48;;;;;;;9.60;2.97;;;;;;;4.88;100.00;101910.47;5042424;28;20037;-50
2022/09/20 06:30:18;;;;;;;6.32;3.78;;;;;;;4.88;100.00;101923.59;5034238;28;20025;-50
2022/09/20 06:33:17;;;;;;;5.70;3.20;;;;;;;4.94;100.00;101917.91;5033404;28;20339;-49
2022/09/20 06:35:47;;;;;;;5.95;3.60;;;;;;;5.02;100.00;101924.22;5036058;28;20021;-52
2022/09/20 06:41:38;;;;;;;6.55;3.15;;;;;;;5.15;100.00;101934.63;5023506;28;20045;-49
2022/09/20 06:44:05;;;;;;;5.03;3.13;;;;;;;5.21;100.00;101933.28;5035213;28;20156;-50
2022/09/20 06:46:33;;;;;;;5.97;3.88;;;;;;;5.23;100.00;101928.75;5046721;28;20543;-49
2022/09/20 06:48:59;;;;;;;7.07;3.75;;;;;;;5.29;100.00;101932.69;5048176;28;20033;-49
2022/09/20 06:51:27;;;;;;;5.28;2.83;;;;;;;5.38;100.00;101929.34;5039794;28;20036;-52
2022/09/20 06:53:56;;;;;;;7.13;3.92;;;;;;;5.46;100.00;101933.03;5045795;28;20359;-49
2022/09/20 06:56:25;;;;;;;8.50;4.60;;;;;;;5.56;100.00;101933.13;5033992;28;20087;-52
2022/09/20 06:58:51;;;;;;;6.20;4.10;;;;;;;5.68;100.00;101936.59;5040748;28;20060;-50
2022/09/20 07:01:18;;;;;;;6.45;4.43;;;;;;;5.80;100.00;101934.75;5042115;28;20059;-49
2022/09/20 07:03:43;;;;;;;6.68;3.42;;;;;;;5.94;100.00;101938.91;5039447;28;20124;-51
2022/09/20 07:06:10;;;;;;;5.63;3.17;;;;;;;6.04;100.00;101934.56;5033542;28;20033;-49
2022/09/20 07:08:35;;;;;;;7.07;3.83;;;;;;;6.13;100.00;101944.38;5036717;28;20028;-47
2022/09/20 07:11:12;;;;;;;5.30;3.53;;;;;;;6.25;100.00;101935.47;5039527;28;20029;-48
2022/09/20 07:13:38;;;;;;;8.55;4.22;;;;;;;6.36;100.00;101946.91;5036212;28;20040;-49
2022/09/20 07:16:05;;;;;;;8.07;3.35;;;;;;;6.49;100.00;101950.19;5045834;28;20499;-47
2022/09/20 07:18:32;;;;;;;4.32;3.10;;;;;;;6.62;100.00;101947.34;5039227;28;20036;-49
2022/09/20 07:20:59;;;;;;;4.75;3.83;;;;;;;6.76;100.00;101947.88;5035238;28;20025;-49
2022/09/20 07:23:25;;;;;;;7.25;3.58;;;;;;;6.96;100.00;101955.88;5040337;28;20026;-49
2022/09/20 07:25:52;;;;;;;4.72;3.38;;;;;;;7.15;100.00;101950.69;5039297;28;20118;-51
2022/09/20 07:28:19;;;;;;;5.47;3.88;;;;;;;7.32;100.00;101943.94;5042506;28;20025;-52
2022/09/20 07:30:45;;;;;;;6.13;3.47;;;;;;;7.53;100.00;101945.66;5031932;28;20034;-49
2022/09/20 07:33:15;;;;;;;6.13;2.83;;;;;;;7.73;100.00;101959.75;5043740;28;20111;-52
2022/09/20 07:35:41;;;;;;;5.15;3.35;;;;;;;7.89;100.00;101961.84;5036484;28;20033;-52
2022/09/20 07:38:07;;;;;;;5.75;3.05;;;;;;;8.05;100.00;101952.44;5038124;28;20029;-51
2022/09/20 07:40:32;;;;;;;7.43;3.28;;;;;;;8.25;100.00;101960.34;5035912;28;20025;-50
2022/09/20 07:42:58;;;;;;;4.38;3.53;;;;;;;8.41;100.00;101957.97;5033490;28;20021;-50
2022/09/20 07:45:23;;;;;;;6.85;3.65;;;;;;;8.55;100.00;101961.19;5045267;28;20059;-53
2022/09/20 07:47:49;;;;;;;6.45;4.22;;;;;;;8.62;100.00;101970.19;5042592;28;20029;-53
2022/09/20 07:50:14;;;;;;;6.07;3.97;;;;;;;8.71;100.00;101966.72;5040825;28;20029;-52
2022/09/20 07:52:39;;;;;;;5.88;3.63;;;;;;;8.83;100.00;101965.59;5044712;28;20032;-50
2022/09/20 07:55:05;;;;;;;7.10;4.13;;;;;;;8.94;100.00;101969.88;5047092;28;20032;-50
2022/09/20 07:57:35;;;;;;;4.38;3.55;;;;;;;9.00;100.00;101969.28;5044004;28;20029;-49
2022/09/20 08:00:00;;;;;;;7.57;3.90;;;;;;;9.07;100.00;101965.09;5046326;28;20039;-49
2022/09/20 08:02:26;;;;;;;5.95;3.58;;;;;;;9.16;100.00;101968.66;5045495;28;20020;-49
2022/09/20 08:04:51;;;;;;;5.78;3.60;;;;;;;9.26;100.00;101972.09;5038596;28;20022;-49
2022/09/20 08:07:17;;;;;;;4.40;3.85;;;;;;;9.37;100.00;101976.38;5034819;28;20044;-51
2022/09/20 08:09:42;;;;;;;7.20;3.60;;;;;;;9.50;100.00;101971.59;5039342;28;20029;-52
2022/09/20 08:12:08;;;;;;;3.97;3.20;;;;;;;9.60;100.00;101971.53;5036634;28;20025;-50
2022/09/20 08:14:33;;;;;;;4.60;3.00;;;;;;;9.77;100.00;101976.03;5038749;28;20541;-50
2022/09/20 08:16:59;;;;;;;6.47;3.47;;;;;;;9.91;100.00;101979.97;5036003;28;20025;-50
2022/09/20 08:19:25;;;;;;;6.50;3.00;;;;;;;10.04;100.00;101979.59;5031726;28;20060;-50
2022/09/20 08:21:52;;;;;;;5.72;3.25;;;;;;;10.14;100.00;101974.22;5043576;28;20086;-52
2022/09/20 08:24:18;;;;;;;6.07;3.22;;;;;;;10.29;100.00;101977.22;5041011;28;20056;-50
2022/09/20 08:26:44;;;;;;;5.72;3.28;;;;;;;10.45;100.00;101977.34;5042785;28;20123;-52
2022/09/20 08:29:10;;;;;;;5.00;3.63;;;;;;;10.59;100.00;101987.41;5039931;28;20029;-52
2022/09/20 08:31:39;;;;;;;4.47;3.90;;;;;;;10.68;100.00;101983.81;5036074;28;20029;-53
2022/09/20 08:34:06;;;;;;;8.70;4.90;;;;;;;10.80;100.00;101987.06;5046869;28;20036;-54
2022/09/20 08:36:32;;;;;;;10.52;4.18;;;;;;;10.89;100.00;101983.47;5042897;28;20101;-54
2022/09/20 08:38:58;;;;;;;8.18;5.85;;;;;;;10.98;100.00;101986.19;5044105;28;20397;-52
2022/09/20 08:41:35;;;;;;;12.73;5.90;;;;;;;11.06;100.00;101987.06;5042101;28;20160;-52
2022/09/20 08:44:28;;;;;;;6.40;4.38;;;;;;;11.23;100.00;101980.03;5046518;28;20034;-51
2022/09/20 08:47:06;;;;;;;6.20;3.60;;;;;;;11.33;100.00;101982.53;5033080;28;20048;-49
2022/09/20 08:49:32;;;;;;;9.70;4.85;;;;;;;11.41;100.00;101985.25;5031134;28;20421;-52
2022/09/20 08:51:59;;;;;;;6.38;4.18;;;;;;;11.53;100.00;101986.59;5036792;28;20033;-52
2022/09/20 08:54:26;;;;;;;9.52;5.32;;;;;;;11.69;100.00;101982.34;5039839;28;20510;-52
2022/09/20 08:56:52;;;;;;;7.13;5.50;;;;;;;11.88;100.00;101984.75;5039464;28;20426;-50
2022/09/20 08:59:20;;;;;;;8.48;5.13;;;;;;;12.11;100.00;101984.13;5042464;28;20033;-51
2022/09/20 09:01:50;;;;;;;8.40;5.20;;;;;;;12.28;100.00;101983.13;5038356;28;20025;-50
2022/09/20 09:04:24;;;;;;;9.93;4.95;;;;;;;12.41;100.00;101986.13;5040939;28;20025;-50
2022/09/20 09:06:51;;;;;;;5.57;4.25;;;;;;;12.58;100.00;101978.97;5046921;28;20020;-50
2022/09/20 09:09:16;;;;;;;7.20;5.03;;;;;;;12.75;100.00;101990.44;5042655;28;20025;-51
2022/09/20 09:11:43;;;;;;;6.93;3.92;;;;;;;12.91;100.00;101984.25;5041623;28;20087;-55
2022/09/20 09:17:09;;;;;;;9.82;5.53;;;;;;;13.30;100.00;101968.34;5034058;28;20041;-52
2022/09/20 09:19:57;;;;;;;4.82;3.80;;;;;;;13.48;100.00;101953.97;5039845;28;20039;-55
2022/09/20 09:22:36;;;;;;;4.22;2.63;;;;;;;13.67;100.00;101955.34;5043073;28;20025;-55
2022/09/20 09:25:13;;;;;;;3.17;2.35;;;;;;;13.84;100.00;101953.44;5040041;28;20033;-52
2022/09/20 09:28:05;;;;;;;2.50;2.20;;;;;;;14.00;100.00;101953.31;5040948;28;20029;-53
2022/09/20 09:30:30;;;;;;;1.80;1.45;;;;;;;14.09;100.00;101940.72;5034558;28;20116;-55
2022/09/20 09:33:14;;;;;;;2.85;1.63;;;;;;;14.20;100.00;101937.66;5036687;28;20435;-52
2022/09/20 09:35:39;;;;;;;3.28;1.70;;;;;;;14.31;100.00;101933.72;5039172;28;20407;-49
2022/09/20 09:38:08;;;;;;;3.33;1.75;;;;;;;14.39;100.00;101941.66;5033443;28;20067;-50
2022/09/20 09:40:34;;;;;;;2.75;2.13;;;;;;;14.49;100.00;101934.22;5035223;28;20043;-49
2022/09/20 09:43:02;;;;;;;3.85;2.30;;;;;;;14.72;100.00;101936.06;5038975;28;20025;-50
2022/09/20 09:45:35;;;;;;;4.28;2.10;;;;;;;14.89;100.00;101940.19;5033636;28;20035;-48
2022/09/20 09:48:01;;;;;;;3.25;1.73;;;;;;;14.96;100.00;101934.94;5038275;28;20092;-49
2022/09/20 09:50:31;;;;;;;3.90;2.13;;;;;;;14.97;100.00;101940.13;5037068;28;21145;-49
2022/09/20 09:53:11;;;;;;;2.70;2.17;;;;;;;15.06;100.00;101940.84;5032324;28;20029;-50
2022/09/20 09:56:11;;;;;;;3.95;2.70;;;;;;;14.99;100.00;101931.91;5046893;28;20078;-49
2022/09/20 09:58:42;;;;;;;2.58;1.73;;;;;;;15.15;100.00;101930.88;5035560;28;20489;-51
2022/09/20 10:01:20;;;;;;;4.35;1.75;;;;;;;15.25;100.00;101928.72;5042144;28;20163;-50
2022/09/20 10:04:00;;;;;;;3.72;2.50;;;;;;;15.44;100.00;101924.66;5045340;28;20035;-53
2022/09/20 10:06:56;;;;;;;4.63;3.50;;;;;;;15.54;100.00;101922.53;5045398;28;20497;-53
2022/09/20 10:09:32;;;;;;;3.97;1.50;;;;;;;15.65;100.00;101914.00;5037389;28;20029;-52
2022/09/20 10:12:03;;;;;;;1.00;0.40;;;;;;;15.64;100.00;101904.34;5036033;28;20029;-53
2022/09/20 10:14:38;;;;;;;1.40;0.38;;;;;;;15.62;100.00;101900.19;5044699;28;20045;-55
2022/09/20 10:17:18;;;;;;;0.20;0.20;;;;;;;15.53;100.00;101895.97;5033902;28;20041;-52
2022/09/20 10:20:17;;;;;;;6.00;0.25;;;;;;;15.62;100.00;101895.66;5033009;28;20120;-53
2022/09/20 10:23:17;;;;;;;0.15;0.00;;;;;;;15.78;100.00;101891.94;5038496;28;20405;-54
2022/09/20 10:25:53;;;;;;;0.93;0.60;;;;;;;15.88;100.00;101880.94;5043890;28;20029;-55
2022/09/20 10:28:56;;;;;;;6.95;0.95;;;;;;;15.95;100.00;101878.28;5039018;28;20527;-56
2022/09/20 10:31:28;;;;;;;0.20;0.00;;;;;;;15.91;100.00;101881.38;5037938;28;20056;-49
2022/09/20 10:34:11;;;;;;;0.10;0.10;;;;;;;15.89;100.00;101888.75;5045235;28;20036;-48
2022/09/20 10:36:57;;;;;;;2.47;0.30;;;;;;;15.96;100.00;101883.47;5044845;28;20434;-49
2022/09/20 10:39:40;;;;;;;0.10;0.10;;;;;;;15.98;100.00;101883.25;5042069;28;20072;-50
2022/09/20 10:45:26;;;;;;;0.77;0.70;;;;;;;16.07;100.00;101871.41;5048004;28;20406;-51
2022/09/20 10:48:08;;;;;;;2.08;0.63;;;;;;;16.06;100.00;101875.13;5036622;28;20467;-52
2022/09/20 10:51:11;;;;;;;0.40;0.32;;;;;;;16.02;100.00;101871.97;5044250;28;20512;-53
2022/09/20 10:54:04;;;;;;;0.50;0.30;;;;;;;16.27;100.00;101879.59;5028801;28;20103;-54
2022/09/20 10:56:35;;;;;;;0.70;0.45;;;;;;;16.65;100.00;101869.34;5041411;28;20412;-53
2022/09/20 10:59:06;;;;;;;1.02;0.68;;;;;;;16.83;100.00;101876.03;5041122;28;20192;-54
2022/09/20 11:01:32;;;;;;;0.40;0.40;;;;;;;16.74;100.00;101876.19;5043770;28;20067;-51
2022/09/20 11:04:23;;;;;;;0.77;0.38;;;;;;;16.69;100.00;101881.31;5039155;28;20145;-54
2022/09/20 11:07:25;;;;;;;2.67;0.77;;;;;;;16.88;100.00;101873.59;5042442;28;20033;-53
2022/09/20 11:10:01;;;;;;;1.40;0.10;;;;;;;17.09;100.00;101870.81;5046019;28;20040;-57
2022/09/20 11:12:31;;;;;;;0.57;0.50;;;;;;;16.91;100.00;101862.47;5039634;28;20534;-53
2022/09/20 11:15:12;;;;;;;5.55;0.30;;;;;;;16.87;100.00;101871.97;5049670;28;20448;-53
2022/09/20 11:18:03;;;;;;;1.57;0.50;;;;;;;16.83;100.00;101876.03;5045008;28;20406;-53
2022/09/20 11:20:35;;;;;;;0.32;0.32;;;;;;;17.03;100.00;101868.94;5048529;28;20314;-48
2022/09/20 11:23:10;;;;;;;0.82;0.30;;;;;;;17.26;100.00;101873.13;5045679;28;20041;-50
2022/09/20 11:25:43;;;;;;;1.67;0.68;;;;;;;17.40;100.00;101861.44;5041604;28;20029;-50
2022/09/20 11:28:21;;;;;;;2.60;0.30;;;;;;;17.22;100.00;101865.50;5032465;28;20036;-45
2022/09/20 11:30:56;;;;;;;0.93;0.45;;;;;;;17.05;100.00;101874.09;5037913;28;20025;-49
2022/09/20 11:33:28;;;;;;;2.05;0.70;;;;;;;17.02;100.00;101863.78;5048973;28;20029;-49
2022/09/20 11:36:00;;;;;;;0.85;0.50;;;;;;;17.41;100.00;101855.03;5046951;28;20045;-55
2022/09/20 11:38:41;;;;;;;0.55;0.50;;;;;;;17.79;100.00;101857.16;5042490;28;20025;-49
2022/09/20 11:41:24;;;;;;;0.47;0.25;;;;;;;18.20;100.00;101853.44;5040713;28;20029;-56
2022/09/20 11:43:51;;;;;;;2.03;1.48;;;;;;;18.38;100.00;101859.03;5050790;28;20112;-54
2022/09/20 11:46:25;;;;;;;1.60;1.20;;;;;;;18.42;100.00;101854.88;5038342;28;20028;-53
2022/09/20 11:48:59;;;;;;;0.93;0.82;;;;;;;18.36;100.00;101853.03;5038969;28;20458;-55
2022/09/20 11:52:00;;;;;;;1.70;0.50;;;;;;;18.50;100.00;101857.31;5041193;28;20056;-51
2022/09/20 11:54:57;;;;;;;1.37;1.27;;;;;;;18.49;100.00;101855.69;5025140;28;20103;-53
2022/09/20 11:57:23;;;;;;;2.00;0.88;;;;;;;18.42;100.00;101846.81;5036017;28;20490;-54
2022/09/20 11:59:53;;;;;;;0.65;0.28;;;;;;;18.41;100.00;101857.78;5036951;28;20643;-52
2022/09/20 12:02:25;;;;;;;0.93;0.28;;;;;;;18.41;100.00;101849.72;5036946;28;20083;-55
2022/09/20 12:04:52;;;;;;;1.65;0.85;;;;;;;18.57;100.00;101843.91;5036361;28;20108;-55
2022/09/20 12:07:55;;;;;;;0.50;0.43;;;;;;;18.60;100.00;101842.66;5027243;28;20136;-55
2022/09/20 12:10:24;;;;;;;1.77;0.85;;;;;;;18.74;100.00;101860.34;5015694;28;20072;-47
2022/09/20 12:12:58;;;;;;;0.95;0.85;;;;;;;18.41;100.00;101852.41;5033199;28;20052;-53
2022/09/20 12:15:24;;;;;;;2.83;0.75;;;;;;;18.09;100.00;101850.34;5039706;28;20139;-49
2022/09/20 12:17:50;;;;;;;1.75;0.22;;;;;;;17.96;100.00;101850.38;5041373;28;20489;-49
2022/09/20 12:20:38;;;;;;;1.27;0.68;;;;;;;17.98;100.00;101848.31;5034368;28;20036;-52